sensor_id;sensor_type;location;lat;lon;timestamp;P1;durP1;ratioP1;P2;durP2;ratioP2
15192;SDS011;7697;51.630;7.484;2023-04-16T00:03:27;20.67;;;13.00;;
15192;SDS011;7697;51.630;7.484;2023-04-16T00:08:29;17.83;;;11.73;;
15192;SDS011;7697;51.630;7.484;2023-04-16T00:13:32;19.00;;;12.35;;
15192;SDS011;7697;51.630;7.484;2023-04-16T00:18:34;22.17;;;14.65;;
15192;SDS011;7697;51.630;7.484;2023-04-16T00:23:36;19.52;;;12.95;;
15192;SDS011;7697;51.630;7.484;2023-04-16T00:28:39;19.42;;;13.13;;
15192;SDS011;7697;51.630;7.484;2023-04-16T00:33:41;21.80;;;14.15;;
15192;SDS011;7697;51.630;7.484;2023-04-16T00:38:43;17.85;;;12.88;;
15192;SDS011;7697;51.630;7.484;2023-04-16T00:43:46;23.08;;;13.43;;
15192;SDS011;7697;51.630;7.484;2023-04-16T00:48:48;20.88;;;15.27;;
15192;SDS011;7697;51.630;7.484;2023-04-16T00:53:51;30.40;;;18.83;;
15192;SDS011;7697;51.630;7.484;2023-04-16T00:58:55;25.48;;;17.92;;
15192;SDS011;7697;51.630;7.484;2023-04-16T01:03:57;21.50;;;14.93;;
15192;SDS011;7697;51.630;7.484;2023-04-16T01:08:59;20.02;;;13.82;;
15192;SDS011;7697;51.630;7.484;2023-04-16T01:14:02;20.60;;;13.57;;
15192;SDS011;7697;51.630;7.484;2023-04-16T01:19:04;18.92;;;13.32;;
15192;SDS011;7697;51.630;7.484;2023-04-16T01:24:07;20.33;;;13.43;;
15192;SDS011;7697;51.630;7.484;2023-04-16T01:29:09;19.63;;;13.73;;
15192;SDS011;7697;51.630;7.484;2023-04-16T01:34:11;19.13;;;13.80;;
15192;SDS011;7697;51.630;7.484;2023-04-16T01:39:14;20.50;;;14.02;;
15192;SDS011;7697;51.630;7.484;2023-04-16T01:44:18;22.40;;;14.68;;
15192;SDS011;7697;51.630;7.484;2023-04-16T01:49:20;18.65;;;13.90;;
15192;SDS011;7697;51.630;7.484;2023-04-16T01:54:24;21.08;;;14.32;;
15192;SDS011;7697;51.630;7.484;2023-04-16T01:59:26;22.70;;;14.45;;
15192;SDS011;7697;51.630;7.484;2023-04-16T02:04:28;24.65;;;14.45;;
15192;SDS011;7697;51.630;7.484;2023-04-16T02:09:31;20.83;;;14.70;;
15192;SDS011;7697;51.630;7.484;2023-04-16T02:14:35;22.90;;;15.20;;
15192;SDS011;7697;51.630;7.484;2023-04-16T02:19:36;23.95;;;16.23;;
15192;SDS011;7697;51.630;7.484;2023-04-16T02:24:40;23.77;;;16.20;;
15192;SDS011;7697;51.630;7.484;2023-04-16T02:29:41;25.17;;;16.63;;
15192;SDS011;7697;51.630;7.484;2023-04-16T02:34:43;24.60;;;16.70;;
15192;SDS011;7697;51.630;7.484;2023-04-16T02:39:46;22.43;;;17.47;;
15192;SDS011;7697;51.630;7.484;2023-04-16T02:44:49;21.58;;;16.38;;
15192;SDS011;7697;51.630;7.484;2023-04-16T02:49:50;21.67;;;15.52;;
15192;SDS011;7697;51.630;7.484;2023-04-16T02:54:53;28.27;;;18.45;;
15192;SDS011;7697;51.630;7.484;2023-04-16T02:59:55;26.95;;;17.80;;
15192;SDS011;7697;51.630;7.484;2023-04-16T03:04:57;26.30;;;17.98;;
15192;SDS011;7697;51.630;7.484;2023-04-16T03:10:00;22.10;;;15.50;;
15192;SDS011;7697;51.630;7.484;2023-04-16T03:15:02;21.42;;;16.65;;
15192;SDS011;7697;51.630;7.484;2023-04-16T03:20:05;23.90;;;17.23;;
15192;SDS011;7697;51.630;7.484;2023-04-16T03:25:10;24.73;;;16.58;;
15192;SDS011;7697;51.630;7.484;2023-04-16T03:30:13;22.83;;;17.27;;
15192;SDS011;7697;51.630;7.484;2023-04-16T03:35:15;27.77;;;16.90;;
15192;SDS011;7697;51.630;7.484;2023-04-16T03:40:19;28.73;;;18.75;;
15192;SDS011;7697;51.630;7.484;2023-04-16T03:45:21;25.92;;;17.85;;
15192;SDS011;7697;51.630;7.484;2023-04-16T03:50:22;26.02;;;19.13;;
15192;SDS011;7697;51.630;7.484;2023-04-16T03:55:26;32.47;;;20.63;;
15192;SDS011;7697;51.630;7.484;2023-04-16T04:00:28;35.38;;;21.63;;
15192;SDS011;7697;51.630;7.484;2023-04-16T04:05:30;31.95;;;20.20;;
15192;SDS011;7697;51.630;7.484;2023-04-16T04:10:38;31.55;;;19.67;;
15192;SDS011;7697;51.630;7.484;2023-04-16T04:15:40;31.67;;;19.90;;
15192;SDS011;7697;51.630;7.484;2023-04-16T04:20:43;32.03;;;20.58;;
15192;SDS011;7697;51.630;7.484;2023-04-16T04:25:46;30.38;;;20.70;;
15192;SDS011;7697;51.630;7.484;2023-04-16T04:30:48;29.45;;;19.15;;
15192;SDS011;7697;51.630;7.484;2023-04-16T04:35:50;29.50;;;20.13;;
15192;SDS011;7697;51.630;7.484;2023-04-16T04:40:53;32.25;;;21.77;;
15192;SDS011;7697;51.630;7.484;2023-04-16T04:45:55;30.40;;;21.27;;
15192;SDS011;7697;51.630;7.484;2023-04-16T04:50:56;31.23;;;21.83;;
15192;SDS011;7697;51.630;7.484;2023-04-16T04:56:00;31.80;;;21.25;;
15192;SDS011;7697;51.630;7.484;2023-04-16T05:01:01;32.85;;;22.63;;
15192;SDS011;7697;51.630;7.484;2023-04-16T05:06:03;31.55;;;21.70;;
15192;SDS011;7697;51.630;7.484;2023-04-16T05:11:07;32.72;;;22.75;;
15192;SDS011;7697;51.630;7.484;2023-04-16T05:16:10;30.05;;;20.92;;
15192;SDS011;7697;51.630;7.484;2023-04-16T05:21:12;30.40;;;20.60;;
15192;SDS011;7697;51.630;7.484;2023-04-16T05:26:15;27.52;;;19.83;;
15192;SDS011;7697;51.630;7.484;2023-04-16T05:31:17;28.85;;;20.92;;
15192;SDS011;7697;51.630;7.484;2023-04-16T05:36:19;27.17;;;20.08;;
15192;SDS011;7697;51.630;7.484;2023-04-16T05:41:23;29.83;;;20.63;;
15192;SDS011;7697;51.630;7.484;2023-04-16T05:46:27;34.53;;;23.17;;
15192;SDS011;7697;51.630;7.484;2023-04-16T05:51:29;26.50;;;20.42;;
15192;SDS011;7697;51.630;7.484;2023-04-16T05:56:32;31.83;;;21.65;;
15192;SDS011;7697;51.630;7.484;2023-04-16T06:01:34;31.25;;;22.40;;
15192;SDS011;7697;51.630;7.484;2023-04-16T06:06:36;29.27;;;21.65;;
15192;SDS011;7697;51.630;7.484;2023-04-16T06:11:40;25.80;;;20.38;;
15192;SDS011;7697;51.630;7.484;2023-04-16T06:16:42;21.70;;;17.42;;
15192;SDS011;7697;51.630;7.484;2023-04-16T06:21:44;23.50;;;19.13;;
15192;SDS011;7697;51.630;7.484;2023-04-16T06:26:47;28.23;;;21.25;;
15192;SDS011;7697;51.630;7.484;2023-04-16T06:31:49;31.52;;;21.48;;
15192;SDS011;7697;51.630;7.484;2023-04-16T06:36:52;24.92;;;20.63;;
15192;SDS011;7697;51.630;7.484;2023-04-16T06:41:55;28.17;;;21.17;;
15192;SDS011;7697;51.630;7.484;2023-04-16T06:46:57;28.30;;;22.00;;
15192;SDS011;7697;51.630;7.484;2023-04-16T06:52:01;28.92;;;21.98;;
15192;SDS011;7697;51.630;7.484;2023-04-16T06:57:04;32.63;;;22.42;;
15192;SDS011;7697;51.630;7.484;2023-04-16T07:02:06;28.65;;;22.30;;
15192;SDS011;7697;51.630;7.484;2023-04-16T07:07:09;30.20;;;24.02;;
15192;SDS011;7697;51.630;7.484;2023-04-16T07:12:12;26.38;;;22.40;;
15192;SDS011;7697;51.630;7.484;2023-04-16T07:17:14;23.33;;;19.75;;
15192;SDS011;7697;51.630;7.484;2023-04-16T07:22:16;28.30;;;22.13;;
15192;SDS011;7697;51.630;7.484;2023-04-16T07:27:19;30.70;;;23.27;;
15192;SDS011;7697;51.630;7.484;2023-04-16T07:32:21;26.17;;;21.08;;
15192;SDS011;7697;51.630;7.484;2023-04-16T07:37:22;27.60;;;22.27;;
15192;SDS011;7697;51.630;7.484;2023-04-16T07:42:26;26.90;;;21.80;;
15192;SDS011;7697;51.630;7.484;2023-04-16T07:47:28;30.35;;;23.80;;
15192;SDS011;7697;51.630;7.484;2023-04-16T07:52:29;32.65;;;25.00;;
15192;SDS011;7697;51.630;7.484;2023-04-16T07:57:33;29.35;;;22.15;;
15192;SDS011;7697;51.630;7.484;2023-04-16T08:02:35;28.48;;;22.67;;
15192;SDS011;7697;51.630;7.484;2023-04-16T08:07:36;30.58;;;23.63;;
15192;SDS011;7697;51.630;7.484;2023-04-16T08:12:39;27.67;;;22.90;;
15192;SDS011;7697;51.630;7.484;2023-04-16T08:17:41;30.90;;;24.48;;
15192;SDS011;7697;51.630;7.484;2023-04-16T08:22:43;28.50;;;23.42;;
15192;SDS011;7697;51.630;7.484;2023-04-16T08:27:47;29.25;;;22.70;;
15192;SDS011;7697;51.630;7.484;2023-04-16T08:32:50;28.83;;;23.48;;
15192;SDS011;7697;51.630;7.484;2023-04-16T08:37:53;28.65;;;22.50;;
15192;SDS011;7697;51.630;7.484;2023-04-16T08:42:58;29.50;;;23.00;;
15192;SDS011;7697;51.630;7.484;2023-04-16T08:48:03;26.30;;;21.30;;
15192;SDS011;7697;51.630;7.484;2023-04-16T08:53:06;26.80;;;22.00;;
15192;SDS011;7697;51.630;7.484;2023-04-16T08:58:13;26.63;;;21.83;;
15192;SDS011;7697;51.630;7.484;2023-04-16T09:03:16;25.73;;;21.90;;
15192;SDS011;7697;51.630;7.484;2023-04-16T09:08:20;25.27;;;20.33;;
15192;SDS011;7697;51.630;7.484;2023-04-16T09:13:23;28.42;;;22.27;;
15192;SDS011;7697;51.630;7.484;2023-04-16T09:18:25;29.35;;;23.23;;
15192;SDS011;7697;51.630;7.484;2023-04-16T09:23:28;26.38;;;21.55;;
15192;SDS011;7697;51.630;7.484;2023-04-16T09:28:38;25.58;;;21.42;;
15192;SDS011;7697;51.630;7.484;2023-04-16T09:33:41;27.52;;;22.05;;
15192;SDS011;7697;51.630;7.484;2023-04-16T09:38:47;24.95;;;19.48;;
15192;SDS011;7697;51.630;7.484;2023-04-16T09:43:55;22.90;;;20.08;;
15192;SDS011;7697;51.630;7.484;2023-04-16T09:48:57;21.83;;;18.67;;
15192;SDS011;7697;51.630;7.484;2023-04-16T09:54:05;26.10;;;21.05;;
15192;SDS011;7697;51.630;7.484;2023-04-16T09:59:10;24.35;;;19.67;;
15192;SDS011;7697;51.630;7.484;2023-04-16T10:04:17;25.13;;;20.25;;
15192;SDS011;7697;51.630;7.484;2023-04-16T10:09:21;23.90;;;19.85;;
15192;SDS011;7697;51.630;7.484;2023-04-16T10:14:24;22.05;;;18.90;;
15192;SDS011;7697;51.630;7.484;2023-04-16T10:19:26;19.42;;;17.20;;
15192;SDS011;7697;51.630;7.484;2023-04-16T10:24:31;21.05;;;18.80;;
15192;SDS011;7697;51.630;7.484;2023-04-16T10:29:36;19.67;;;17.67;;
15192;SDS011;7697;51.630;7.484;2023-04-16T10:34:38;17.83;;;15.93;;
15192;SDS011;7697;51.630;7.484;2023-04-16T10:39:40;18.88;;;16.52;;
15192;SDS011;7697;51.630;7.484;2023-04-16T10:44:44;19.05;;;16.92;;
15192;SDS011;7697;51.630;7.484;2023-04-16T10:49:46;17.77;;;15.88;;
15192;SDS011;7697;51.630;7.484;2023-04-16T10:54:48;18.15;;;15.65;;
15192;SDS011;7697;51.630;7.484;2023-04-16T10:59:56;16.55;;;14.35;;
15192;SDS011;7697;51.630;7.484;2023-04-16T11:04:58;16.65;;;14.95;;
15192;SDS011;7697;51.630;7.484;2023-04-16T11:10:02;16.75;;;14.50;;
15192;SDS011;7697;51.630;7.484;2023-04-16T11:15:07;16.48;;;14.13;;
15192;SDS011;7697;51.630;7.484;2023-04-16T11:20:14;14.82;;;12.93;;
15192;SDS011;7697;51.630;7.484;2023-04-16T11:25:20;15.65;;;13.75;;
15192;SDS011;7697;51.630;7.484;2023-04-16T11:30:28;16.30;;;14.52;;
15192;SDS011;7697;51.630;7.484;2023-04-16T11:35:31;16.23;;;14.57;;
15192;SDS011;7697;51.630;7.484;2023-04-16T11:40:33;14.83;;;13.50;;
15192;SDS011;7697;51.630;7.484;2023-04-16T11:45:36;14.18;;;12.77;;
15192;SDS011;7697;51.630;7.484;2023-04-16T11:50:38;14.43;;;12.88;;
15192;SDS011;7697;51.630;7.484;2023-04-16T11:55:41;13.77;;;12.30;;
15192;SDS011;7697;51.630;7.484;2023-04-16T12:00:46;11.70;;;10.48;;
15192;SDS011;7697;51.630;7.484;2023-04-16T12:05:48;11.25;;;10.15;;
15192;SDS011;7697;51.630;7.484;2023-04-16T12:10:51;11.63;;;9.82;;
15192;SDS011;7697;51.630;7.484;2023-04-16T12:15:57;10.80;;;9.70;;
15192;SDS011;7697;51.630;7.484;2023-04-16T12:21:03;13.73;;;12.32;;
15192;SDS011;7697;51.630;7.484;2023-04-16T12:26:07;14.68;;;12.90;;
15192;SDS011;7697;51.630;7.484;2023-04-16T12:31:12;14.95;;;12.20;;
15192;SDS011;7697;51.630;7.484;2023-04-16T12:36:17;14.13;;;12.65;;
15192;SDS011;7697;51.630;7.484;2023-04-16T12:41:20;17.48;;;13.02;;
15192;SDS011;7697;51.630;7.484;2023-04-16T12:46:23;15.18;;;12.98;;
15192;SDS011;7697;51.630;7.484;2023-04-16T12:51:25;15.80;;;13.88;;
15192;SDS011;7697;51.630;7.484;2023-04-16T12:56:27;15.98;;;13.15;;
15192;SDS011;7697;51.630;7.484;2023-04-16T13:01:30;15.48;;;12.88;;
15192;SDS011;7697;51.630;7.484;2023-04-16T13:06:35;15.07;;;13.07;;
15192;SDS011;7697;51.630;7.484;2023-04-16T13:11:37;12.20;;;11.02;;
15192;SDS011;7697;51.630;7.484;2023-04-16T13:16:40;12.65;;;11.45;;
15192;SDS011;7697;51.630;7.484;2023-04-16T13:21:42;12.10;;;10.90;;
15192;SDS011;7697;51.630;7.484;2023-04-16T13:26:44;11.63;;;10.43;;
15192;SDS011;7697;51.630;7.484;2023-04-16T13:31:47;13.13;;;10.68;;
15192;SDS011;7697;51.630;7.484;2023-04-16T13:36:49;11.52;;;9.93;;
15192;SDS011;7697;51.630;7.484;2023-04-16T13:41:51;10.00;;;9.00;;
15192;SDS011;7697;51.630;7.484;2023-04-16T13:46:54;10.60;;;9.50;;
15192;SDS011;7697;51.630;7.484;2023-04-16T13:51:55;13.63;;;11.05;;
15192;SDS011;7697;51.630;7.484;2023-04-16T13:56:57;11.38;;;10.15;;
15192;SDS011;7697;51.630;7.484;2023-04-16T14:02:01;10.93;;;9.80;;
15192;SDS011;7697;51.630;7.484;2023-04-16T14:07:04;10.65;;;9.57;;
15192;SDS011;7697;51.630;7.484;2023-04-16T14:12:06;10.73;;;9.63;;
15192;SDS011;7697;51.630;7.484;2023-04-16T14:17:09;14.18;;;10.68;;
15192;SDS011;7697;51.630;7.484;2023-04-16T14:22:11;12.32;;;10.13;;
15192;SDS011;7697;51.630;7.484;2023-04-16T14:27:16;11.57;;;10.38;;
15192;SDS011;7697;51.630;7.484;2023-04-16T14:32:19;11.75;;;10.48;;
15192;SDS011;7697;51.630;7.484;2023-04-16T14:37:21;11.90;;;10.63;;
15192;SDS011;7697;51.630;7.484;2023-04-16T14:42:23;11.52;;;10.43;;
15192;SDS011;7697;51.630;7.484;2023-04-16T14:47:26;10.93;;;9.77;;
15192;SDS011;7697;51.630;7.484;2023-04-16T14:52:29;12.23;;;9.85;;
15192;SDS011;7697;51.630;7.484;2023-04-16T14:57:31;13.63;;;11.05;;
15192;SDS011;7697;51.630;7.484;2023-04-16T15:02:34;12.30;;;11.02;;
15192;SDS011;7697;51.630;7.484;2023-04-16T15:07:39;12.75;;;10.48;;
15192;SDS011;7697;51.630;7.484;2023-04-16T15:12:40;11.32;;;10.25;;
15192;SDS011;7697;51.630;7.484;2023-04-16T15:17:43;13.43;;;11.32;;
15192;SDS011;7697;51.630;7.484;2023-04-16T15:22:45;10.38;;;8.90;;
15192;SDS011;7697;51.630;7.484;2023-04-16T15:27:47;9.98;;;8.82;;
15192;SDS011;7697;51.630;7.484;2023-04-16T15:32:50;9.63;;;8.63;;
15192;SDS011;7697;51.630;7.484;2023-04-16T15:37:54;9.15;;;8.20;;
15192;SDS011;7697;51.630;7.484;2023-04-16T15:42:55;9.82;;;8.65;;
15192;SDS011;7697;51.630;7.484;2023-04-16T15:47:58;10.25;;;9.25;;
15192;SDS011;7697;51.630;7.484;2023-04-16T15:53:00;11.38;;;9.25;;
15192;SDS011;7697;51.630;7.484;2023-04-16T15:58:02;9.38;;;8.38;;
15192;SDS011;7697;51.630;7.484;2023-04-16T16:03:05;9.98;;;8.98;;
15192;SDS011;7697;51.630;7.484;2023-04-16T16:08:07;8.80;;;7.90;;
15192;SDS011;7697;51.630;7.484;2023-04-16T16:13:09;9.68;;;8.50;;
15192;SDS011;7697;51.630;7.484;2023-04-16T16:18:16;9.63;;;8.70;;
15192;SDS011;7697;51.630;7.484;2023-04-16T16:23:18;9.63;;;8.60;;
15192;SDS011;7697;51.630;7.484;2023-04-16T16:28:20;8.32;;;7.53;;
15192;SDS011;7697;51.630;7.484;2023-04-16T16:33:24;9.23;;;7.43;;
15192;SDS011;7697;51.630;7.484;2023-04-16T16:38:27;8.30;;;7.35;;
15192;SDS011;7697;51.630;7.484;2023-04-16T16:43:28;8.02;;;7.30;;
15192;SDS011;7697;51.630;7.484;2023-04-16T16:48:31;7.85;;;7.03;;
15192;SDS011;7697;51.630;7.484;2023-04-16T16:53:33;8.02;;;6.93;;
15192;SDS011;7697;51.630;7.484;2023-04-16T16:58:35;8.40;;;7.38;;
15192;SDS011;7697;51.630;7.484;2023-04-16T17:03:39;8.55;;;7.63;;
15192;SDS011;7697;51.630;7.484;2023-04-16T17:08:40;8.95;;;7.25;;
15192;SDS011;7697;51.630;7.484;2023-04-16T17:13:42;8.43;;;7.53;;
15192;SDS011;7697;51.630;7.484;2023-04-16T17:18:45;10.70;;;9.60;;
15192;SDS011;7697;51.630;7.484;2023-04-16T17:23:47;10.60;;;8.75;;
15192;SDS011;7697;51.630;7.484;2023-04-16T17:28:48;10.23;;;9.23;;
15192;SDS011;7697;51.630;7.484;2023-04-16T17:33:52;8.20;;;7.40;;
15192;SDS011;7697;51.630;7.484;2023-04-16T17:38:53;8.38;;;7.53;;
15192;SDS011;7697;51.630;7.484;2023-04-16T17:43:55;7.35;;;6.65;;
15192;SDS011;7697;51.630;7.484;2023-04-16T17:48:58;10.10;;;9.00;;
15192;SDS011;7697;51.630;7.484;2023-04-16T17:54:00;8.75;;;7.10;;
15192;SDS011;7697;51.630;7.484;2023-04-16T17:59:02;7.70;;;6.90;;
15192;SDS011;7697;51.630;7.484;2023-04-16T18:04:05;6.80;;;6.20;;
15192;SDS011;7697;51.630;7.484;2023-04-16T18:09:07;8.10;;;7.30;;
15192;SDS011;7697;51.630;7.484;2023-04-16T18:14:09;8.43;;;7.63;;
15192;SDS011;7697;51.630;7.484;2023-04-16T18:19:14;8.38;;;7.50;;
15192;SDS011;7697;51.630;7.484;2023-04-16T18:24:16;9.95;;;8.05;;
15192;SDS011;7697;51.630;7.484;2023-04-16T18:29:18;8.65;;;7.85;;
15192;SDS011;7697;51.630;7.484;2023-04-16T18:34:21;8.35;;;7.55;;
15192;SDS011;7697;51.630;7.484;2023-04-16T18:39:24;9.95;;;9.05;;
15192;SDS011;7697;51.630;7.484;2023-04-16T18:44:26;10.82;;;9.82;;
15192;SDS011;7697;51.630;7.484;2023-04-16T18:49:29;8.63;;;7.70;;
15192;SDS011;7697;51.630;7.484;2023-04-16T18:54:31;7.57;;;6.78;;
15192;SDS011;7697;51.630;7.484;2023-04-16T18:59:32;7.35;;;6.63;;
15192;SDS011;7697;51.630;7.484;2023-04-16T19:04:35;8.32;;;7.28;;
15192;SDS011;7697;51.630;7.484;2023-04-16T19:09:38;9.32;;;7.72;;
15192;SDS011;7697;51.630;7.484;2023-04-16T19:14:39;13.63;;;10.73;;
15192;SDS011;7697;51.630;7.484;2023-04-16T19:19:42;12.57;;;11.07;;
15192;SDS011;7697;51.630;7.484;2023-04-16T19:24:44;16.90;;;12.15;;
15192;SDS011;7697;51.630;7.484;2023-04-16T19:29:46;13.60;;;11.05;;
15192;SDS011;7697;51.630;7.484;2023-04-16T19:34:49;17.13;;;12.43;;
15192;SDS011;7697;51.630;7.484;2023-04-16T19:39:51;18.35;;;13.20;;
15192;SDS011;7697;51.630;7.484;2023-04-16T19:44:53;16.77;;;12.95;;
15192;SDS011;7697;51.630;7.484;2023-04-16T19:49:57;15.15;;;12.13;;
15192;SDS011;7697;51.630;7.484;2023-04-16T19:54:59;21.92;;;15.23;;
15192;SDS011;7697;51.630;7.484;2023-04-16T20:00:00;18.27;;;13.43;;
15192;SDS011;7697;51.630;7.484;2023-04-16T20:05:06;18.67;;;14.05;;
15192;SDS011;7697;51.630;7.484;2023-04-16T20:10:09;18.45;;;13.52;;
15192;SDS011;7697;51.630;7.484;2023-04-16T20:15:10;12.77;;;11.05;;
15192;SDS011;7697;51.630;7.484;2023-04-16T20:20:14;13.82;;;11.30;;
15192;SDS011;7697;51.630;7.484;2023-04-16T20:25:16;11.60;;;10.27;;
15192;SDS011;7697;51.630;7.484;2023-04-16T20:30:19;10.57;;;9.32;;
15192;SDS011;7697;51.630;7.484;2023-04-16T20:35:25;10.18;;;9.15;;
15192;SDS011;7697;51.630;7.484;2023-04-16T20:40:27;10.10;;;9.10;;
15192;SDS011;7697;51.630;7.484;2023-04-16T20:45:29;9.52;;;8.48;;
15192;SDS011;7697;51.630;7.484;2023-04-16T20:50:38;8.65;;;7.70;;
15192;SDS011;7697;51.630;7.484;2023-04-16T20:55:41;9.50;;;8.48;;
15192;SDS011;7697;51.630;7.484;2023-04-16T21:00:45;9.07;;;8.15;;
15192;SDS011;7697;51.630;7.484;2023-04-16T21:05:50;14.52;;;13.02;;
15192;SDS011;7697;51.630;7.484;2023-04-16T21:10:53;13.70;;;12.30;;
15192;SDS011;7697;51.630;7.484;2023-04-16T21:15:55;12.77;;;11.47;;
15192;SDS011;7697;51.630;7.484;2023-04-16T21:20:58;11.05;;;9.95;;
15192;SDS011;7697;51.630;7.484;2023-04-16T21:26:00;11.50;;;9.80;;
15192;SDS011;7697;51.630;7.484;2023-04-16T21:31:02;11.32;;;10.23;;
15192;SDS011;7697;51.630;7.484;2023-04-16T21:36:05;11.57;;;10.35;;
15192;SDS011;7697;51.630;7.484;2023-04-16T21:41:07;11.40;;;10.13;;
15192;SDS011;7697;51.630;7.484;2023-04-16T21:46:09;10.98;;;9.48;;
15192;SDS011;7697;51.630;7.484;2023-04-16T21:51:12;10.30;;;9.20;;
15192;SDS011;7697;51.630;7.484;2023-04-16T21:56:14;9.90;;;8.90;;
15192;SDS011;7697;51.630;7.484;2023-04-16T22:01:16;9.23;;;8.32;;
15192;SDS011;7697;51.630;7.484;2023-04-16T22:06:19;11.95;;;10.18;;
15192;SDS011;7697;51.630;7.484;2023-04-16T22:11:21;14.00;;;10.52;;
15192;SDS011;7697;51.630;7.484;2023-04-16T22:16:23;16.05;;;11.73;;
15192;SDS011;7697;51.630;7.484;2023-04-16T22:21:27;15.75;;;12.68;;
15192;SDS011;7697;51.630;7.484;2023-04-16T22:26:28;13.80;;;12.40;;
15192;SDS011;7697;51.630;7.484;2023-04-16T22:31:30;13.95;;;12.35;;
15192;SDS011;7697;51.630;7.484;2023-04-16T22:36:33;12.38;;;11.07;;
15192;SDS011;7697;51.630;7.484;2023-04-16T22:41:35;13.38;;;11.98;;
15192;SDS011;7697;51.630;7.484;2023-04-16T22:46:37;12.70;;;10.73;;
15192;SDS011;7697;51.630;7.484;2023-04-16T22:51:41;13.60;;;12.20;;
15192;SDS011;7697;51.630;7.484;2023-04-16T22:56:43;12.60;;;11.30;;
15192;SDS011;7697;51.630;7.484;2023-04-16T23:01:45;15.23;;;12.23;;
15192;SDS011;7697;51.630;7.484;2023-04-16T23:06:49;11.98;;;10.77;;
15192;SDS011;7697;51.630;7.484;2023-04-16T23:11:50;13.38;;;10.90;;
15192;SDS011;7697;51.630;7.484;2023-04-16T23:16:52;12.35;;;11.05;;
15192;SDS011;7697;51.630;7.484;2023-04-16T23:21:55;11.57;;;10.48;;
15192;SDS011;7697;51.630;7.484;2023-04-16T23:26:57;12.80;;;11.40;;
15192;SDS011;7697;51.630;7.484;2023-04-16T23:32:00;13.98;;;10.80;;
15192;SDS011;7697;51.630;7.484;2023-04-16T23:37:03;14.88;;;13.05;;
15192;SDS011;7697;51.630;7.484;2023-04-16T23:42:06;13.55;;;11.45;;
15192;SDS011;7697;51.630;7.484;2023-04-16T23:47:08;11.90;;;10.43;;
15192;SDS011;7697;51.630;7.484;2023-04-16T23:52:11;11.60;;;10.50;;
15192;SDS011;7697;51.630;7.484;2023-04-16T23:57:13;11.43;;;10.23;;
